Taiping Airport
ZYHB : now visible

Airfield :











YOU CAN JOIN US ON...

 
LOGIN :

Register | Disclaimer

   EN    FR    IT 

 









Legend :    VFR   Marginal VFR   IFR   Intensive IFR   Very Intensive IFR
Visi :
Ceiling :
>= 8 km
>= 3000ft
5 to 8 km
1000 to 3000 ft
1500m to 5 km
500 to 1000 ft
800 to 1500m
200 to 500 ft
< 800m
< 200 ft
Symbols :   Thunderstorms  Fog  Heavy snow  Heavy precipitations  Wind > 20 kt







- Airport Elevation : 457 ft
- IATA code : HRB


ZYHB - Taiping

CURRENT METAR :
  • 152100Z 20004MPS CAVOK M17/M20 Q1022 NOSIG

EXPIRED METARs :
  • 152000Z 21004MPS CAVOK M18/M20 Q1022 NOSIG
  • 151900Z 20003MPS 8000 NSC M17/M20 Q1022 NOSIG

TAF TAF ZYHB
Valid from the 15 at 18:00 until the 16 at 18:00 UTC


151313Z 1518/1618 25004MPS 5000 FU SCT030 TXM03/06Z TNM18/21Z
TEMPO 1518/1524 1400 FU
ZYSH FIR / Asia



MET'MAP, your aeronautical weather chart ! - Copyright ORBIFLY December 2007 - Disclaimer

ORBIFLY MET'MAP TEAM :

Programming & Development : Alexandra Zaïnal
Concept & Development : Baudouin d'Aumeries
Co-Development & Prog : Marc-Olivier Méhu
Technical & hardware support : Manuel Goepfert

Contact : metmap@orbifly.com




SOURCES & CREDITS :

   NOAA       Earth
Advisory